Time;durP1;ratioP1;P1;durP2;ratioP2;P2;SDS_P1;SDS_P2;PMS_P1;PMS_P2;Temp;Humidity;BMP_temperature;BMP_pressure;BME280_temperature;BME280_humidity;BME280_pressure;Samples;Min_cycle;Max_cycle;Signal;HPM_P1;HPM_P2
2023/05/03 00:01:42;;;;;;;5.90;4.83;;;5.20;1.00;;;;;;4957346;28;20219;-62
2023/05/03 00:04:10;;;;;;;6.67;5.03;;;5.10;1.00;;;;;;4949755;29;20251;-62
2023/05/03 00:06:37;;;;;;;9.23;5.67;;;4.90;1.00;;;;;;4946262;28;20257;-61
2023/05/03 00:09:04;;;;;;;7.73;5.70;;;4.80;1.00;;;;;;4961099;28;20253;-62
2023/05/03 00:11:32;;;;;;;8.10;5.73;;;4.60;1.00;;;;;;4952522;29;20211;-61
2023/05/03 00:13:59;;;;;;;8.33;5.63;;;4.50;1.00;;;;;;4965073;28;20199;-61
2023/05/03 00:16:26;;;;;;;7.13;5.60;;;4.50;1.00;;;;;;4953019;29;20816;-61
2023/05/03 00:18:53;;;;;;;11.33;6.30;;;4.50;1.00;;;;;;4953064;28;20206;-61
2023/05/03 00:21:20;;;;;;;7.97;5.83;;;4.50;1.00;;;;;;4950306;29;20584;-63
2023/05/03 00:23:47;;;;;;;8.93;5.83;;;4.60;1.00;;;;;;4952870;29;20667;-62
2023/05/03 00:26:14;;;;;;;11.33;6.50;;;4.60;1.00;;;;;;4955729;28;20207;-64
2023/05/03 00:28:41;;;;;;;7.87;5.63;;;4.50;1.00;;;;;;4958523;28;20698;-62
2023/05/03 00:31:09;;;;;;;9.47;5.97;;;4.60;1.00;;;;;;4953982;29;20218;-62
2023/05/03 00:33:38;;;;;;;7.07;5.60;;;4.50;1.00;;;;;;4953144;29;20195;-62
2023/05/03 00:36:14;;;;;;;7.80;5.20;;;4.50;1.00;;;;;;4954394;28;20288;-62
2023/05/03 00:38:41;;;;;;;6.70;5.40;;;4.50;1.00;;;;;;4918259;29;20194;-61
2023/05/03 00:41:09;;;;;;;7.23;5.57;;;4.50;1.00;;;;;;4964606;28;20253;-62
2023/05/03 00:43:37;;;;;;;8.43;5.20;;;4.50;1.00;;;;;;4950569;29;20191;-62
2023/05/03 00:46:09;;;;;;;6.27;5.50;;;4.40;1.00;;;;;;4948616;29;20233;-62
2023/05/03 00:48:49;;;;;;;9.17;6.03;;;4.40;1.00;;;;;;4953195;28;20227;-62
2023/05/03 00:51:19;;;;;;;10.30;5.77;;;4.40;1.00;;;;;;4951946;29;20695;-62
2023/05/03 00:53:46;;;;;;;7.67;5.77;;;4.40;1.00;;;;;;4926948;29;20242;-63
2023/05/03 00:56:22;;;;;;;9.13;5.73;;;4.30;1.00;;;;;;4953614;28;21017;-62
2023/05/03 00:58:52;;;;;;;7.77;5.90;;;4.30;1.00;;;;;;4946709;29;20251;-62
2023/05/03 01:01:20;;;;;;;6.33;5.37;;;4.30;1.00;;;;;;4954691;28;20199;-62
2023/05/03 01:03:49;;;;;;;9.50;5.80;;;4.20;1.00;;;;;;4947277;29;20207;-62
2023/05/03 01:06:32;;;;;;;9.93;5.87;;;4.20;1.00;;;;;;4964919;28;20679;-62
2023/05/03 01:09:11;;;;;;;7.23;5.40;;;4.20;1.00;;;;;;4953076;29;20227;-62
2023/05/03 01:11:50;;;;;;;6.97;5.30;;;4.10;1.00;;;;;;4952033;28;20341;-62
2023/05/03 01:14:29;;;;;;;9.13;5.70;;;4.10;1.00;;;;;;4952991;29;20191;-62
2023/05/03 01:17:01;;;;;;;7.40;5.33;;;4.10;1.00;;;;;;4959367;28;20187;-62
2023/05/03 01:19:41;;;;;;;8.33;5.73;;;4.10;1.00;;;;;;4955620;28;20198;-65
2023/05/03 01:22:11;;;;;;;11.67;5.70;;;4.10;1.00;;;;;;4954316;28;20249;-62
2023/05/03 01:24:41;;;;;;;10.90;6.20;;;4.10;1.00;;;;;;4941192;28;20201;-63
2023/05/03 01:27:08;;;;;;;11.33;5.90;;;4.00;1.00;;;;;;4955261;28;20951;-68
2023/05/03 01:29:35;;;;;;;6.20;5.60;;;4.00;1.00;;;;;;4956581;28;20218;-62
2023/05/03 01:32:08;;;;;;;8.13;5.60;;;4.00;1.00;;;;;;4951680;28;20692;-61
2023/05/03 01:35:07;;;;;;;10.67;5.73;;;4.00;1.00;;;;;;4947125;28;20701;-61
2023/05/03 01:37:35;;;;;;;7.90;5.97;;;4.00;1.00;;;;;;4950657;28;20206;-62
2023/05/03 01:40:06;;;;;;;11.03;6.27;;;3.80;1.00;;;;;;4924494;28;20222;-64
2023/05/03 01:42:36;;;;;;;11.70;5.63;;;3.60;1.00;;;;;;4931027;29;20248;-62
2023/05/03 01:45:04;;;;;;;8.33;5.80;;;3.50;1.00;;;;;;4925473;29;20195;-62
2023/05/03 01:47:31;;;;;;;6.77;6.03;;;3.50;1.00;;;;;;4916650;29;20202;-62
2023/05/03 01:49:58;;;;;;;7.37;6.43;;;3.50;1.00;;;;;;4960922;28;20567;-62
2023/05/03 01:52:26;;;;;;;12.13;7.00;;;3.50;1.00;;;;;;4930235;28;20672;-62
2023/05/03 01:54:53;;;;;;;7.67;6.07;;;3.50;1.00;;;;;;4923493;29;20210;-66
2023/05/03 01:57:20;;;;;;;8.83;6.27;;;3.50;1.00;;;;;;4934156;29;20191;-64
2023/05/03 01:59:47;;;;;;;8.47;5.90;;;4.30;1.00;;;;;;4919812;29;20235;-64
2023/05/03 02:02:14;;;;;;;7.23;5.97;;;5.00;1.00;;;;;;4936941;29;20219;-64
2023/05/03 02:04:41;;;;;;;7.93;5.63;;;5.40;1.00;;;;;;4939684;28;20196;-64
2023/05/03 02:07:08;;;;;;;9.83;5.73;;;5.30;1.00;;;;;;4931919;29;20215;-65
2023/05/03 02:09:35;;;;;;;7.07;4.80;;;5.10;1.00;;;;;;4928888;29;20219;-71
2023/05/03 02:12:02;;;;;;;7.43;5.33;;;4.90;1.00;;;;;;4926433;29;20625;-76
2023/05/03 02:14:31;;;;;;;7.77;4.80;;;4.70;1.00;;;;;;4940831;29;20805;-64
2023/05/03 02:16:59;;;;;;;9.20;5.27;;;4.60;1.00;;;;;;4945398;29;20286;-64
2023/05/03 02:19:26;;;;;;;8.53;5.43;;;4.00;1.00;;;;;;4930403;29;20625;-62
2023/05/03 02:21:53;;;;;;;13.27;5.77;;;3.40;1.00;;;;;;4931549;29;20211;-62
2023/05/03 02:24:22;;;;;;;9.73;6.67;;;3.00;1.00;;;;;;4920409;29;20198;-62
2023/05/03 02:26:49;;;;;;;9.90;6.50;;;2.90;1.00;;;;;;4925061;29;20227;-62
2023/05/03 02:29:16;;;;;;;7.73;6.50;;;2.90;1.00;;;;;;4929762;29;20235;-61
2023/05/03 02:31:44;;;;;;;8.37;6.17;;;3.00;1.00;;;;;;4932929;29;20192;-62
2023/05/03 02:34:11;;;;;;;11.97;7.10;;;3.10;1.00;;;;;;4930971;29;20283;-61
2023/05/03 02:36:38;;;;;;;7.30;6.43;;;3.20;1.00;;;;;;4931632;29;20660;-62
2023/05/03 02:39:06;;;;;;;7.93;5.97;;;3.20;1.00;;;;;;4930108;29;20223;-62
2023/05/03 02:41:33;;;;;;;9.50;5.97;;;3.20;1.00;;;;;;4931265;29;20735;-62
2023/05/03 02:44:00;;;;;;;7.47;5.63;;;3.30;1.00;;;;;;4952936;28;20774;-61
2023/05/03 02:46:27;;;;;;;8.83;5.97;;;3.30;1.00;;;;;;4950433;29;20199;-62
2023/05/03 02:48:54;;;;;;;8.83;6.60;;;3.30;1.00;;;;;;4950652;29;20311;-63
2023/05/03 02:51:21;;;;;;;9.97;6.90;;;3.40;1.00;;;;;;4963344;28;20222;-63
2023/05/03 02:53:48;;;;;;;11.13;7.43;;;3.40;1.00;;;;;;4942572;29;20205;-61
2023/05/03 02:56:15;;;;;;;8.27;6.50;;;3.40;1.00;;;;;;4941348;28;20272;-63
2023/05/03 02:58:42;;;;;;;10.97;6.20;;;3.50;1.00;;;;;;4949240;28;20199;-67
2023/05/03 03:01:10;;;;;;;6.93;6.17;;;3.40;1.00;;;;;;4941624;29;20211;-66
2023/05/03 03:03:37;;;;;;;6.27;5.30;;;3.40;1.00;;;;;;4950082;29;20219;-68
2023/05/03 03:06:04;;;;;;;9.40;5.80;;;3.00;1.00;;;;;;4965690;28;20206;-66
2023/05/03 03:08:35;;;;;;;9.47;6.37;;;2.90;1.00;;;;;;4911846;29;20207;-66
2023/05/03 03:11:04;;;;;;;10.03;7.03;;;2.70;1.00;;;;;;4948676;29;20289;-66
2023/05/03 03:13:32;;;;;;;9.90;7.10;;;2.60;1.00;;;;;;4933178;29;20560;-66
2023/05/03 03:16:00;;;;;;;9.97;6.70;;;2.70;1.00;;;;;;4954253;28;20742;-66
2023/05/03 03:18:27;;;;;;;8.40;6.87;;;2.80;1.00;;;;;;4944899;29;20211;-67
2023/05/03 03:20:54;;;;;;;10.30;6.10;;;2.70;1.00;;;;;;4951520;28;20195;-67
2023/05/03 03:23:21;;;;;;;9.13;6.50;;;2.60;1.00;;;;;;4931069;29;20218;-66
2023/05/03 03:25:48;;;;;;;8.23;6.60;;;2.50;1.00;;;;;;4948125;29;20194;-67
2023/05/03 03:28:16;;;;;;;9.83;7.30;;;2.50;1.00;;;;;;4964970;28;20626;-67
2023/05/03 03:30:44;;;;;;;8.63;6.60;;;2.70;1.00;;;;;;4932414;29;20310;-67
2023/05/03 03:33:20;;;;;;;6.93;6.07;;;2.70;1.00;;;;;;4945689;29;20294;-67
2023/05/03 03:35:53;;;;;;;8.37;6.40;;;2.70;1.00;;;;;;4945554;29;20203;-67
2023/05/03 03:38:24;;;;;;;11.83;6.40;;;2.70;1.00;;;;;;4934813;29;20217;-67
2023/05/03 03:40:57;;;;;;;8.13;6.50;;;2.70;1.00;;;;;;4939633;29;20240;-67
2023/05/03 03:43:24;;;;;;;9.30;6.53;;;2.70;1.00;;;;;;4932062;29;20223;-68
2023/05/03 03:45:51;;;;;;;8.80;6.60;;;2.70;1.00;;;;;;4930039;29;20254;-68
2023/05/03 03:48:18;;;;;;;9.47;7.03;;;2.70;1.00;;;;;;4921735;29;20195;-68
2023/05/03 03:50:47;;;;;;;8.30;6.20;;;2.80;1.00;;;;;;4934575;29;20288;-69
2023/05/03 03:53:14;;;;;;;9.20;6.70;;;2.90;1.00;;;;;;4934073;29;20347;-68
2023/05/03 03:55:41;;;;;;;11.77;7.20;;;3.00;1.00;;;;;;4931428;29;20727;-68
2023/05/03 03:58:08;;;;;;;12.80;6.33;;;3.00;1.00;;;;;;4950329;28;20731;-68
2023/05/03 04:00:36;;;;;;;9.93;6.63;;;3.10;1.00;;;;;;4934048;29;20230;-69
2023/05/03 04:03:10;;;;;;;8.53;6.60;;;3.10;1.00;;;;;;4933378;29;20219;-69
2023/05/03 04:05:37;;;;;;;8.50;6.30;;;3.10;1.00;;;;;;4921682;29;20321;-68
2023/05/03 04:08:05;;;;;;;8.23;6.10;;;3.10;1.00;;;;;;4933376;29;20199;-69
2023/05/03 04:10:34;;;;;;;8.77;6.60;;;3.10;1.00;;;;;;4924767;29;20235;-69
2023/05/03 04:13:01;;;;;;;8.77;6.30;;;3.10;1.00;;;;;;4947653;28;20219;-69
2023/05/03 04:15:28;;;;;;;9.33;6.33;;;3.20;1.00;;;;;;4927847;29;20207;-69
2023/05/03 04:17:57;;;;;;;8.57;5.53;;;3.30;1.00;;;;;;4949787;28;20298;-69
2023/05/03 04:20:25;;;;;;;11.10;6.30;;;3.30;1.00;;;;;;4918158;29;20734;-65
2023/05/03 04:22:53;;;;;;;11.80;6.83;;;3.30;1.00;;;;;;4935667;29;20597;-64
2023/05/03 04:25:24;;;;;;;12.80;7.67;;;3.30;1.00;;;;;;4934836;29;20677;-66
2023/05/03 04:27:57;;;;;;;13.83;7.50;;;3.30;1.00;;;;;;4926521;29;20216;-66
2023/05/03 04:30:26;;;;;;;9.47;6.17;;;3.60;1.00;;;;;;4917246;29;20200;-67
2023/05/03 04:32:57;;;;;;;6.47;5.10;;;4.30;1.00;;;;;;4917715;29;20203;-68
2023/05/03 04:35:25;;;;;;;5.97;4.60;;;5.00;1.00;;;;;;4929791;29;20218;-66
2023/05/03 04:37:53;;;;;;;7.90;4.60;;;5.70;1.00;;;;;;4928562;29;20204;-67
2023/05/03 04:40:22;;;;;;;10.57;4.73;;;6.10;1.00;;;;;;4932971;29;20299;-66
2023/05/03 04:43:04;;;;;;;9.03;4.20;;;6.30;1.00;;;;;;4948158;28;20745;-66
2023/05/03 04:45:34;;;;;;;4.90;4.40;;;6.90;1.00;;;;;;4930025;29;20731;-66
2023/05/03 04:48:04;;;;;;;6.27;4.03;;;6.20;1.00;;;;;;4948102;29;20215;-66
2023/05/03 04:50:32;;;;;;;6.53;3.97;;;5.40;1.00;;;;;;4954228;28;20195;-65
2023/05/03 04:53:00;;;;;;;7.27;4.90;;;4.90;1.00;;;;;;4945102;28;20207;-66
2023/05/03 04:55:28;;;;;;;6.63;4.63;;;5.00;1.00;;;;;;4927439;29;20239;-67
2023/05/03 04:57:57;;;;;;;6.83;4.33;;;6.00;1.00;;;;;;4929174;29;20237;-67
2023/05/03 05:00:25;;;;;;;6.10;4.37;;;6.90;1.00;;;;;;4938916;29;20237;-67
2023/05/03 05:02:58;;;;;;;7.67;4.53;;;7.60;1.00;;;;;;4951024;29;20226;-66
2023/05/03 05:05:28;;;;;;;7.20;4.47;;;8.10;1.00;;;;;;4947975;28;20200;-67
2023/05/03 05:07:57;;;;;;;5.27;4.03;;;7.70;1.00;;;;;;4950880;28;20234;-67
2023/05/03 05:10:26;;;;;;;5.43;4.40;;;7.40;1.00;;;;;;4949561;28;20588;-67
2023/05/03 05:12:55;;;;;;;6.43;4.27;;;7.40;1.00;;;;;;4932195;29;20198;-66
2023/05/03 05:15:22;;;;;;;9.20;4.13;;;9.00;1.00;;;;;;4942619;29;20273;-67
2023/05/03 05:17:49;;;;;;;4.97;3.93;;;8.70;1.00;;;;;;4951244;28;20237;-67
2023/05/03 05:20:18;;;;;;;7.03;4.10;;;7.80;1.00;;;;;;4940050;29;20212;-67
2023/05/03 05:22:48;;;;;;;3.23;2.80;;;7.40;1.00;;;;;;4926821;29;20222;-67
2023/05/03 05:25:15;;;;;;;5.00;3.97;;;8.90;1.00;;;;;;4933291;29;20195;-67
2023/05/03 05:27:43;;;;;;;9.30;4.23;;;11.80;1.00;;;;;;4928388;29;20199;-66
2023/05/03 05:30:10;;;;;;;9.93;5.10;;;13.60;1.00;;;;;;4945564;29;20242;-67
2023/05/03 05:32:40;;;;;;;6.43;4.43;;;14.40;1.00;;;;;;4925339;29;20532;-66
2023/05/03 05:35:10;;;;;;;10.13;4.93;;;15.40;1.00;;;;;;4930930;28;20214;-67
2023/05/03 05:37:37;;;;;;;5.65;4.78;;;15.30;1.00;;;;;;4954259;28;20199;-66
2023/05/03 05:40:06;;;;;;;6.80;4.57;;;16.10;1.00;;;;;;4933941;28;20652;-67
2023/05/03 05:42:39;;;;;;;7.13;3.78;;;16.60;1.00;;;;;;4917053;29;20235;-66
2023/05/03 05:45:07;;;;;;;7.28;3.70;;;17.10;1.00;;;;;;4938321;29;20628;-65
2023/05/03 05:47:35;;;;;;;9.75;3.83;;;17.80;1.00;;;;;;4926864;29;20237;-66
2023/05/03 05:50:04;;;;;;;6.05;3.70;;;18.40;1.00;;;;;;4946990;28;20719;-67
2023/05/03 05:52:45;;;;;;;4.25;3.42;;;17.10;1.00;;;;;;4930598;29;20272;-67
2023/05/03 05:55:14;;;;;;;6.00;3.55;;;17.50;1.00;;;;;;4933632;29;20762;-66
2023/05/03 05:57:43;;;;;;;5.25;3.83;;;18.60;1.00;;;;;;4933882;28;20208;-66
2023/05/03 06:00:14;;;;;;;5.10;3.67;;;19.20;1.00;;;;;;4949463;28;20221;-66
2023/05/03 06:02:44;;;;;;;6.78;3.72;;;19.20;1.00;;;;;;4948381;28;20214;-66
2023/05/03 06:05:15;;;;;;;9.15;4.00;;;19.50;1.00;;;;;;4934603;29;20195;-67
2023/05/03 06:07:42;;;;;;;4.70;3.40;;;20.60;1.00;;;;;;4931451;28;20565;-66
2023/05/03 06:10:10;;;;;;;7.00;3.53;;;20.40;1.00;;;;;;4934812;29;20289;-66
2023/05/03 06:12:41;;;;;;;3.60;3.17;;;20.40;1.00;;;;;;4916516;29;20234;-66
2023/05/03 06:15:13;;;;;;;10.25;4.30;;;21.40;1.00;;;;;;4932216;29;20216;-67
2023/05/03 06:17:40;;;;;;;7.18;3.15;;;21.80;1.00;;;;;;4932006;28;20210;-66
2023/05/03 06:20:10;;;;;;;8.20;3.40;;;22.30;1.00;;;;;;4922478;29;20203;-67
2023/05/03 06:22:39;;;;;;;7.22;3.50;;;21.80;1.00;;;;;;4907100;29;20212;-66
2023/05/03 06:25:08;;;;;;;4.78;3.33;;;21.90;1.00;;;;;;4921648;28;20205;-66
2023/05/03 06:27:37;;;;;;;7.65;3.58;;;20.50;1.00;;;;;;4943582;28;20188;-66
2023/05/03 06:30:06;;;;;;;7.43;3.35;;;20.80;1.00;;;;;;4929570;29;20199;-67
2023/05/03 06:32:33;;;;;;;6.05;3.03;;;20.40;1.00;;;;;;4947739;28;20214;-67
2023/05/03 06:35:00;;;;;;;7.20;3.22;;;19.30;1.00;;;;;;4946351;28;20659;-67
2023/05/03 06:37:28;;;;;;;6.05;3.45;;;18.70;1.00;;;;;;4939371;29;20194;-67
2023/05/03 06:39:55;;;;;;;7.80;3.10;;;19.80;1.00;;;;;;4934340;28;20235;-67
2023/05/03 06:42:22;;;;;;;4.65;3.30;;;19.80;1.00;;;;;;4944636;29;20351;-66
2023/05/03 06:45:02;;;;;;;6.90;3.00;;;20.70;1.00;;;;;;4940056;29;20556;-67
2023/05/03 06:47:29;;;;;;;6.68;2.83;;;22.40;1.00;;;;;;4934140;29;20196;-67
2023/05/03 06:49:56;;;;;;;6.22;2.85;;;23.70;1.00;;;;;;4916968;29;20192;-67
2023/05/03 06:52:23;;;;;;;6.07;2.95;;;23.10;1.00;;;;;;4930105;29;20207;-66
2023/05/03 06:54:51;;;;;;;5.68;3.00;;;23.50;1.00;;;;;;4929793;29;20532;-67
2023/05/03 06:57:18;;;;;;;6.03;2.80;;;23.80;1.00;;;;;;4930490;29;20195;-67
2023/05/03 06:59:45;;;;;;;4.65;2.88;;;22.90;1.00;;;;;;4944625;29;20246;-68
2023/05/03 07:02:12;;;;;;;7.68;3.33;;;23.50;1.00;;;;;;4922844;29;20196;-68
2023/05/03 07:04:39;;;;;;;6.13;2.97;;;24.10;1.00;;;;;;4921946;29;20207;-66
2023/05/03 07:07:06;;;;;;;3.85;2.50;;;24.00;1.00;;;;;;4929634;29;20199;-66
2023/05/03 07:09:33;;;;;;;4.05;2.70;;;24.20;1.00;;;;;;4925243;29;20196;-66
2023/05/03 07:12:09;;;;;;;4.07;2.45;;;25.90;1.00;;;;;;4940123;28;20195;-66
2023/05/03 07:14:37;;;;;;;7.40;2.40;;;25.80;1.00;;;;;;4931896;29;20558;-65
2023/05/03 07:17:04;;;;;;;8.73;2.92;;;24.50;1.00;;;;;;4930362;29;20215;-66
2023/05/03 07:19:32;;;;;;;6.72;3.40;;;23.40;1.00;;;;;;4925172;29;20703;-66
2023/05/03 07:21:59;;;;;;;25.45;20.25;;;20.80;1.00;;;;;;4929718;29;20228;-66
2023/05/03 07:24:26;;;;;;;5.53;2.40;;;19.80;1.00;;;;;;4926723;29;20204;-67
2023/05/03 07:26:53;;;;;;;3.85;1.90;;;23.10;1.00;;;;;;4945126;28;20697;-67
2023/05/03 07:29:20;;;;;;;4.70;2.45;;;23.90;1.00;;;;;;4923062;29;20196;-66
2023/05/03 07:31:47;;;;;;;6.25;2.35;;;21.50;1.00;;;;;;4929602;29;20191;-66
2023/05/03 07:34:17;;;;;;;4.60;1.70;;;22.20;1.00;;;;;;4920983;29;20617;-67
2023/05/03 07:36:44;;;;;;;5.15;2.25;;;21.40;1.00;;;;;;4943544;28;20668;-66
2023/05/03 07:39:11;;;;;;;4.35;1.98;;;20.70;1.00;;;;;;4917309;29;20665;-66
2023/05/03 07:41:38;;;;;;;3.20;2.05;;;19.50;1.00;;;;;;4926458;29;20291;-66
2023/05/03 07:44:05;;;;;;;4.43;2.03;;;20.60;1.00;;;;;;4930765;29;20211;-66
2023/05/03 07:46:33;;;;;;;3.55;2.25;;;20.60;1.00;;;;;;4926336;28;20610;-67
2023/05/03 07:49:05;;;;;;;6.70;2.55;;;21.50;1.00;;;;;;4923733;29;20238;-66
2023/05/03 07:51:35;;;;;;;4.95;2.15;;;24.00;1.00;;;;;;4927083;29;20331;-67
2023/05/03 07:54:03;;;;;;;3.95;2.10;;;23.10;1.00;;;;;;4930147;29;20206;-66
2023/05/03 07:56:30;;;;;;;4.43;1.92;;;20.90;1.00;;;;;;4947124;28;20282;-66
2023/05/03 07:58:57;;;;;;;4.93;2.03;;;21.40;1.00;;;;;;4942129;28;20702;-66
2023/05/03 08:01:36;;;;;;;4.50;2.20;;;21.10;1.00;;;;;;4929476;29;20281;-66
2023/05/03 08:04:03;;;;;;;6.18;2.05;;;19.20;1.00;;;;;;4941462;29;20720;-66
2023/05/03 08:06:32;;;;;;;4.78;1.95;;;15.90;1.00;;;;;;4931084;29;20187;-66
2023/05/03 08:08:59;;;;;;;5.82;2.28;;;18.90;1.00;;;;;;4942697;28;20660;-67
2023/05/03 08:11:27;;;;;;;6.45;1.90;;;20.80;1.00;;;;;;4922310;29;20197;-67
2023/05/03 08:13:55;;;;;;;4.40;2.10;;;21.60;1.00;;;;;;4935079;29;20205;-67
2023/05/03 08:16:23;;;;;;;6.68;2.13;;;22.20;1.00;;;;;;4915377;29;20195;-66
2023/05/03 08:18:50;;;;;;;2.22;1.80;;;20.80;1.00;;;;;;4943907;28;20698;-68
2023/05/03 08:21:18;;;;;;;4.60;2.15;;;19.20;1.00;;;;;;4920065;29;20215;-67
2023/05/03 08:23:45;;;;;;;3.00;1.90;;;21.20;1.00;;;;;;4931962;28;20238;-67
2023/05/03 08:26:13;;;;;;;2.70;2.08;;;22.70;1.00;;;;;;4931964;29;20195;-67
2023/05/03 08:28:40;;;;;;;5.43;2.10;;;25.00;1.00;;;;;;4934367;28;20230;-66
2023/05/03 08:31:08;;;;;;;3.67;1.90;;;26.00;1.00;;;;;;4939241;29;20667;-66
2023/05/03 08:33:36;;;;;;;4.35;1.67;;;25.10;1.00;;;;;;4931421;28;20813;-66
2023/05/03 08:36:03;;;;;;;4.95;1.70;;;27.10;1.00;;;;;;4931608;28;20204;-66
2023/05/03 08:38:31;;;;;;;4.60;2.05;;;30.00;1.00;;;;;;4940904;29;20618;-65
2023/05/03 08:41:09;;;;;;;5.10;1.95;;;27.50;1.00;;;;;;4938035;29;20235;-66
2023/05/03 08:43:42;;;;;;;3.30;2.00;;;24.60;1.00;;;;;;4944499;28;21058;-66
2023/05/03 08:46:12;;;;;;;5.18;2.13;;;26.80;1.00;;;;;;4943576;29;20664;-67
2023/05/03 08:48:40;;;;;;;2.95;1.75;;;26.70;1.00;;;;;;4945861;28;20725;-67
2023/05/03 08:51:08;;;;;;;4.13;1.65;;;24.80;1.00;;;;;;4942272;28;20868;-66
2023/05/03 08:53:35;;;;;;;3.80;1.90;;;25.50;1.00;;;;;;4947734;28;20203;-66
2023/05/03 08:56:11;;;;;;;2.63;2.08;;;23.90;1.00;;;;;;4927857;28;20218;-66
2023/05/03 08:58:38;;;;;;;7.25;4.10;;;25.50;1.00;;;;;;4948264;28;20796;-64
2023/05/03 09:01:07;;;;;;;4.32;1.88;;;28.00;1.00;;;;;;4937134;28;20561;-66
2023/05/03 09:03:35;;;;;;;5.95;2.42;;;25.60;1.00;;;;;;4944530;28;20214;-67
2023/05/03 09:06:18;;;;;;;4.10;1.80;;;23.40;1.00;;;;;;4958946;28;20194;-65
2023/05/03 09:08:45;;;;;;;4.13;2.22;;;26.60;1.00;;;;;;4933588;28;20203;-67
2023/05/03 09:11:23;;;;;;;3.22;1.90;;;27.60;1.00;;;;;;4931986;29;20309;-65
2023/05/03 09:13:51;;;;;;;4.43;1.98;;;27.40;1.00;;;;;;4917888;29;20199;-67
2023/05/03 09:16:26;;;;;;;5.38;1.95;;;27.00;1.00;;;;;;4951864;28;20209;-67
2023/05/03 09:19:01;;;;;;;4.15;2.00;;;27.10;1.00;;;;;;4918399;28;20191;-66
2023/05/03 09:21:30;;;;;;;9.15;2.30;;;25.90;1.00;;;;;;4946295;28;20264;-67
2023/05/03 09:23:58;;;;;;;3.42;2.03;;;24.30;1.00;;;;;;4944109;28;20238;-67
2023/05/03 09:26:33;;;;;;;4.25;2.35;;;22.50;1.00;;;;;;4951191;28;20188;-66
2023/05/03 09:29:03;;;;;;;5.95;2.63;;;24.40;1.00;;;;;;4963946;28;20195;-67
2023/05/03 09:31:32;;;;;;;6.53;3.03;;;24.60;1.00;;;;;;4952091;28;20203;-67
2023/05/03 09:34:00;;;;;;;6.43;2.05;;;23.80;1.00;;;;;;4950422;28;20263;-66
2023/05/03 09:36:27;;;;;;;2.75;2.00;;;25.80;1.00;;;;;;4955809;28;20195;-66
2023/05/03 09:38:54;;;;;;;6.60;2.30;;;27.80;1.00;;;;;;4948508;28;20270;-64
2023/05/03 09:41:29;;;;;;;3.95;2.38;;;28.50;1.00;;;;;;4956060;28;20326;-67
2023/05/03 09:44:01;;;;;;;6.00;2.20;;;25.50;1.00;;;;;;4937908;29;20223;-66
2023/05/03 09:46:31;;;;;;;5.13;2.45;;;24.60;1.00;;;;;;4944184;28;20198;-67
2023/05/03 09:49:00;;;;;;;3.30;1.98;;;25.50;1.00;;;;;;4946175;28;20787;-65
2023/05/03 09:51:27;;;;;;;6.22;2.40;;;25.50;1.00;;;;;;4952620;28;20229;-67
2023/05/03 09:53:55;;;;;;;2.47;1.88;;;24.20;1.00;;;;;;4938147;28;20715;-65
2023/05/03 09:56:25;;;;;;;5.80;2.22;;;25.00;1.00;;;;;;4961097;28;20222;-65
2023/05/03 09:58:53;;;;;;;4.25;2.20;;;26.00;1.00;;;;;;4950129;28;20199;-65
2023/05/03 10:01:22;;;;;;;7.03;2.42;;;23.90;1.00;;;;;;4944307;28;20203;-67
2023/05/03 10:03:51;;;;;;;5.20;2.50;;;24.00;1.00;;;;;;4946351;28;20215;-65
2023/05/03 10:06:23;;;;;;;7.32;2.67;;;25.20;1.00;;;;;;4955854;28;20250;-65
2023/05/03 10:08:59;;;;;;;3.63;2.10;;;25.00;1.00;;;;;;4952409;28;20278;-67
2023/05/03 10:11:26;;;;;;;5.97;3.00;;;24.50;1.00;;;;;;4934406;29;20206;-66
2023/05/03 10:13:55;;;;;;;5.15;2.90;;;23.20;1.00;;;;;;4939926;28;20202;-67
2023/05/03 10:16:40;;;;;;;7.18;2.50;;;20.80;1.00;;;;;;4941884;28;20559;-65
2023/05/03 10:19:16;;;;;;;4.50;2.25;;;22.40;1.00;;;;;;4957525;28;20256;-66
2023/05/03 10:22:06;;;;;;;4.75;2.28;;;24.90;1.00;;;;;;4952046;28;20190;-66
2023/05/03 10:24:35;;;;;;;4.40;2.05;;;26.80;1.00;;;;;;4919342;29;20226;-66
2023/05/03 10:27:06;;;;;;;6.82;2.55;;;24.20;1.00;;;;;;4939245;29;20333;-67
2023/05/03 10:29:33;;;;;;;3.38;2.30;;;21.10;1.00;;;;;;4954575;28;20198;-66
2023/05/03 10:32:01;;;;;;;4.70;2.80;;;21.40;1.00;;;;;;4953872;28;20654;-67
2023/05/03 10:34:32;;;;;;;4.28;2.60;;;22.40;1.00;;;;;;4947170;28;20206;-66
2023/05/03 10:37:08;;;;;;;5.28;2.53;;;23.40;1.00;;;;;;4947044;28;20200;-66
2023/05/03 10:39:36;;;;;;;4.07;2.53;;;21.70;1.00;;;;;;4939300;28;20224;-67
2023/05/03 10:42:07;;;;;;;5.25;2.65;;;23.00;1.00;;;;;;4957637;28;20252;-65
2023/05/03 10:44:39;;;;;;;6.18;2.65;;;22.60;1.00;;;;;;4949386;28;20198;-67
2023/05/03 10:47:17;;;;;;;3.60;2.20;;;22.30;1.00;;;;;;4957140;28;20235;-67
2023/05/03 10:49:44;;;;;;;4.22;2.63;;;21.50;1.00;;;;;;4944944;28;20304;-67
2023/05/03 10:52:37;;;;;;;5.40;2.33;;;21.50;1.00;;;;;;4940416;28;20188;-66
2023/05/03 10:55:12;;;;;;;3.63;2.22;;;21.00;1.00;;;;;;4931839;28;20223;-66
2023/05/03 10:57:42;;;;;;;4.28;2.53;;;20.90;1.00;;;;;;4960810;28;20199;-67
2023/05/03 11:00:37;;;;;;;3.47;2.63;;;20.70;1.00;;;;;;4945470;28;20702;-66
2023/05/03 11:03:53;;;;;;;6.70;2.65;;;21.10;1.00;;;;;;4944271;29;20243;-66
2023/05/03 11:06:27;;;;;;;6.00;2.83;;;22.10;1.00;;;;;;4944555;28;20599;-67
2023/05/03 11:08:54;;;;;;;4.53;2.65;;;20.90;1.00;;;;;;4946739;28;20573;-67
2023/05/03 11:11:21;;;;;;;3.38;2.78;;;20.40;1.00;;;;;;4934002;29;20786;-67
2023/05/03 11:13:52;;;;;;;4.50;2.70;;;19.90;1.00;;;;;;4948089;28;20278;-66
2023/05/03 11:16:19;;;;;;;6.38;2.60;;;20.80;1.00;;;;;;4948985;28;20511;-67
2023/05/03 11:18:50;;;;;;;4.15;2.63;;;20.70;1.00;;;;;;4941105;28;20198;-66
2023/05/03 11:21:17;;;;;;;6.20;2.78;;;20.70;1.00;;;;;;4956933;28;20222;-67
2023/05/03 11:23:45;;;;;;;5.15;2.50;;;20.60;1.00;;;;;;4934321;29;20290;-66
2023/05/03 11:26:13;;;;;;;5.43;2.40;;;20.70;1.00;;;;;;4957791;28;20214;-67
2023/05/03 11:28:42;;;;;;;4.32;2.83;;;21.00;1.00;;;;;;4934305;28;20191;-67
2023/05/03 11:31:10;;;;;;;3.58;2.50;;;20.20;1.00;;;;;;4906060;29;20199;-66
2023/05/03 11:33:38;;;;;;;4.13;2.97;;;20.70;1.00;;;;;;4952992;28;20277;-67
2023/05/03 11:36:08;;;;;;;4.93;2.63;;;20.70;1.00;;;;;;4955637;28;20536;-66
2023/05/03 11:38:38;;;;;;;8.50;2.85;;;21.00;1.00;;;;;;4951922;28;20545;-68
2023/05/03 11:41:13;;;;;;;4.38;2.40;;;20.10;1.00;;;;;;4959038;28;20242;-68
2023/05/03 11:43:42;;;;;;;4.68;2.70;;;20.60;1.00;;;;;;4945080;28;20187;-67
2023/05/03 11:46:10;;;;;;;6.82;3.13;;;22.60;1.00;;;;;;4941058;28;20251;-67
2023/05/03 11:48:37;;;;;;;6.15;3.00;;;21.40;1.00;;;;;;4952581;28;20199;-67
2023/05/03 11:51:10;;;;;;;5.75;2.92;;;21.00;1.00;;;;;;4950725;28;20197;-66
2023/05/03 11:53:39;;;;;;;4.22;2.80;;;21.60;1.00;;;;;;4942850;28;20250;-67
2023/05/03 11:56:08;;;;;;;4.32;2.88;;;21.00;1.00;;;;;;4954030;28;20656;-68
2023/05/03 11:58:48;;;;;;;6.68;3.13;;;19.90;1.00;;;;;;4952742;28;20688;-67
2023/05/03 12:01:17;;;;;;;5.07;3.03;;;18.60;1.00;;;;;;4919566;29;20229;-67
2023/05/03 12:03:48;;;;;;;5.63;3.58;;;18.00;1.00;;;;;;4939726;28;20205;-68
2023/05/03 12:06:16;;;;;;;6.50;3.17;;;19.50;1.00;;;;;;4949882;28;20197;-67
2023/05/03 12:08:44;;;;;;;7.55;3.17;;;20.40;1.00;;;;;;4948137;28;20192;-66
2023/05/03 12:11:11;;;;;;;4.57;2.60;;;20.00;1.00;;;;;;4920441;28;20224;-67
2023/05/03 12:13:40;;;;;;;4.15;2.97;;;19.40;1.00;;;;;;4949556;28;20199;-68
2023/05/03 12:16:10;;;;;;;8.02;3.30;;;20.20;1.00;;;;;;4962672;28;20234;-66
2023/05/03 12:18:56;;;;;;;7.13;3.20;;;19.60;1.00;;;;;;4916527;29;20222;-68
2023/05/03 12:21:25;;;;;;;5.40;3.15;;;19.40;1.00;;;;;;4937908;29;20648;-66
2023/05/03 12:23:55;;;;;;;8.85;3.47;;;19.20;1.00;;;;;;4936846;29;20183;-69
2023/05/03 12:26:24;;;;;;;6.50;3.28;;;20.10;1.00;;;;;;4934402;29;20230;-68
2023/05/03 12:28:51;;;;;;;4.80;3.20;;;20.40;1.00;;;;;;4934114;29;20191;-67
2023/05/03 12:31:22;;;;;;;7.97;3.55;;;19.30;1.00;;;;;;4948613;28;20247;-68
2023/05/03 12:33:50;;;;;;;6.85;3.50;;;18.60;1.00;;;;;;4936348;29;20241;-67
2023/05/03 12:36:20;;;;;;;4.65;3.05;;;17.90;1.00;;;;;;4928595;29;20223;-67
2023/05/03 12:38:51;;;;;;;7.03;3.20;;;17.70;1.00;;;;;;4950552;29;20278;-69
2023/05/03 12:41:26;;;;;;;5.60;3.08;;;17.90;1.00;;;;;;4948078;28;20317;-67
2023/05/03 12:44:13;;;;;;;5.30;3.38;;;18.00;1.00;;;;;;4927752;28;20219;-66
2023/05/03 12:46:43;;;;;;;6.57;3.35;;;17.60;1.00;;;;;;4955109;28;20274;-68
2023/05/03 12:49:11;;;;;;;6.10;3.50;;;17.80;1.00;;;;;;4946518;29;20226;-67
2023/05/03 12:51:41;;;;;;;7.78;3.60;;;17.60;1.00;;;;;;4951917;28;20278;-67
2023/05/03 12:54:10;;;;;;;6.68;4.03;;;17.40;1.00;;;;;;4950644;28;20286;-67
2023/05/03 12:56:37;;;;;;;7.63;3.72;;;16.70;1.00;;;;;;4952119;28;20195;-67
2023/05/03 12:59:07;;;;;;;4.15;3.40;;;16.60;1.00;;;;;;4936898;28;20707;-67
2023/05/03 13:01:55;;;;;;;5.60;3.75;;;17.40;1.00;;;;;;4945835;29;20194;-67
2023/05/03 13:04:25;;;;;;;6.93;3.30;;;17.20;1.00;;;;;;4950269;29;20695;-67
2023/05/03 13:06:55;;;;;;;6.10;3.60;;;16.50;1.00;;;;;;4950934;29;20195;-66
2023/05/03 13:09:26;;;;;;;7.00;3.65;;;16.40;1.00;;;;;;4947005;29;20191;-66
2023/05/03 13:12:13;;;;;;;4.30;3.05;;;16.30;1.00;;;;;;4950580;28;20287;-67
2023/05/03 13:14:41;;;;;;;8.05;3.75;;;16.60;1.00;;;;;;4949376;29;20192;-67